Time;durP1;ratioP1;P1;durP2;ratioP2;P2;SDS_P1;SDS_P2;PMS_P1;PMS_P2;Temp;Humidity;BMP_temperature;BMP_pressure;BME280_temperature;BME280_humidity;BME280_pressure;Samples;Min_cycle;Max_cycle;Signal;HPM_P1;HPM_P2
2023/09/16 00:02:20;;;;;;;4.97;4.88;;;15.80;99.90;;;;;;4189157;28;20363;-58
2023/09/16 00:04:42;;;;;;;4.00;3.90;;;15.80;99.90;;;;;;4190841;28;20055;-58
2023/09/16 00:07:03;;;;;;;18.30;4.40;;;15.90;99.90;;;;;;4190482;28;20060;-58
2023/09/16 00:09:25;;;;;;;5.97;4.28;;;15.80;99.90;;;;;;4189522;28;20079;-58
2023/09/16 00:11:47;;;;;;;2.53;2.53;;;16.00;99.90;;;;;;4189856;28;20312;-58
2023/09/16 00:14:09;;;;;;;3.88;3.78;;;16.00;99.90;;;;;;4190095;28;20352;-58
2023/09/16 00:16:30;;;;;;;2.67;2.63;;;16.10;99.90;;;;;;4191134;28;20113;-58
2023/09/16 00:18:52;;;;;;;4.20;3.85;;;16.00;99.90;;;;;;4191247;28;20232;-58
2023/09/16 00:21:14;;;;;;;9.90;3.20;;;15.90;99.90;;;;;;4191478;28;20106;-58
2023/09/16 00:23:36;;;;;;;5.03;3.45;;;15.90;99.90;;;;;;4190221;28;20039;-58
2023/09/16 00:25:58;;;;;;;25.20;4.97;;;15.80;99.90;;;;;;4189800;28;20091;-58
2023/09/16 00:28:20;;;;;;;4.78;3.33;;;15.80;99.90;;;;;;4202904;28;20281;-58
2023/09/16 00:30:48;;;;;;;5.80;3.70;;;15.70;99.90;;;;;;4189806;28;20052;-58
2023/09/16 00:33:10;;;;;;;11.05;4.00;;;15.60;99.90;;;;;;4192713;28;20070;-58
2023/09/16 00:35:31;;;;;;;3.58;2.75;;;15.70;99.90;;;;;;4192560;28;20097;-58
2023/09/16 00:37:53;;;;;;;11.82;3.70;;;15.60;99.90;;;;;;4193025;28;20087;-58
2023/09/16 00:40:14;;;;;;;3.03;2.88;;;15.50;99.90;;;;;;4193885;28;20402;-58
2023/09/16 00:42:37;;;;;;;3.00;3.00;;;15.60;99.90;;;;;;4194462;28;20048;-58
2023/09/16 00:44:58;;;;;;;2.67;2.58;;;15.60;99.90;;;;;;4193757;28;20101;-58
2023/09/16 00:47:18;;;;;;;4.35;4.03;;;15.70;99.90;;;;;;4192795;28;20095;-58
2023/09/16 00:49:38;;;;;;;3.28;3.17;;;15.60;99.90;;;;;;4190347;28;20167;-58
2023/09/16 00:51:59;;;;;;;3.70;3.50;;;15.60;99.90;;;;;;4191863;28;20072;-58
2023/09/16 00:54:19;;;;;;;6.80;3.22;;;15.60;99.90;;;;;;4192168;28;20044;-58
2023/09/16 00:56:39;;;;;;;6.18;3.53;;;15.60;99.90;;;;;;4191527;28;20102;-58
2023/09/16 00:59:00;;;;;;;4.57;4.22;;;15.50;99.90;;;;;;4191879;28;20059;-58
2023/09/16 01:01:22;;;;;;;10.40;3.60;;;15.40;99.90;;;;;;4190905;28;20279;-58
2023/09/16 01:03:43;;;;;;;12.82;4.82;;;15.40;99.90;;;;;;4191238;28;20086;-58
2023/09/16 01:06:04;;;;;;;37.70;4.82;;;15.30;99.90;;;;;;4190014;28;20119;-58
2023/09/16 01:08:24;;;;;;;10.68;4.72;;;15.20;99.90;;;;;;4192187;28;20048;-58
2023/09/16 01:10:44;;;;;;;4.40;4.20;;;15.20;99.90;;;;;;4200505;28;20108;-58
2023/09/16 01:13:05;;;;;;;52.67;6.20;;;15.20;99.90;;;;;;4190637;28;20071;-58
2023/09/16 01:15:32;;;;;;;22.95;3.92;;;15.30;99.90;;;;;;4197647;28;20155;-59
2023/09/16 01:17:54;;;;;;;4.78;4.68;;;15.20;99.90;;;;;;4189218;28;20104;-59
2023/09/16 01:20:16;;;;;;;46.88;5.32;;;15.20;99.90;;;;;;4192121;28;20051;-58
2023/09/16 01:22:39;;;;;;;4.30;4.10;;;15.10;99.90;;;;;;4190035;28;20048;-59
2023/09/16 01:25:06;;;;;;;5.30;4.95;;;15.20;99.90;;;;;;4190571;28;20087;-59
2023/09/16 01:27:27;;;;;;;5.63;4.95;;;15.30;99.90;;;;;;4188295;28;20134;-58
2023/09/16 01:29:53;;;;;;;3.40;3.28;;;15.30;99.90;;;;;;4190566;28;20075;-59
2023/09/16 01:32:15;;;;;;;10.07;4.20;;;15.30;99.90;;;;;;4190630;28;20060;-58
2023/09/16 01:34:49;;;;;;;13.63;3.33;;;15.20;99.90;;;;;;4201525;28;20082;-58
2023/09/16 01:37:17;;;;;;;61.47;4.30;;;15.10;99.90;;;;;;4191694;28;20109;-59
2023/09/16 01:39:39;;;;;;;42.92;3.63;;;15.10;99.90;;;;;;4190306;28;20036;-59
2023/09/16 01:42:01;;;;;;;86.47;5.93;;;15.10;99.90;;;;;;4196365;28;20086;-59
2023/09/16 01:44:22;;;;;;;126.57;6.32;;;15.00;99.90;;;;;;4190898;28;20063;-59
2023/09/16 01:46:42;;;;;;;91.75;5.32;;;15.00;99.90;;;;;;4194818;28;20040;-59
2023/09/16 01:49:02;;;;;;;51.60;3.75;;;14.90;99.90;;;;;;4189844;28;20098;-59
2023/09/16 01:51:24;;;;;;;85.32;6.00;;;14.90;99.90;;;;;;4190058;28;20104;-59
2023/09/16 01:53:44;;;;;;;144.30;7.75;;;14.90;99.90;;;;;;4190449;28;20055;-59
2023/09/16 01:56:04;;;;;;;104.20;6.43;;;14.90;99.90;;;;;;4190567;28;20071;-58
2023/09/16 01:58:24;;;;;;;71.53;4.18;;;14.90;99.90;;;;;;4193393;28;20056;-59
2023/09/16 02:00:44;;;;;;;52.88;3.40;;;14.90;99.90;;;;;;4196592;28;20071;-59
2023/09/16 02:03:04;;;;;;;24.52;2.45;;;14.90;99.90;;;;;;4194962;28;20052;-59
2023/09/16 02:05:24;;;;;;;2.45;2.35;;;14.90;99.90;;;;;;4199521;28;20117;-59
2023/09/16 02:07:44;;;;;;;15.82;2.90;;;15.00;99.90;;;;;;4194106;28;20177;-59
2023/09/16 02:10:05;;;;;;;4.93;2.22;;;15.10;99.90;;;;;;4188619;28;20055;-59
2023/09/16 02:12:25;;;;;;;2.50;2.50;;;15.10;99.90;;;;;;4190006;28;20311;-59
2023/09/16 02:14:49;;;;;;;2.20;2.13;;;15.20;99.90;;;;;;4190132;28;20067;-59
2023/09/16 02:17:09;;;;;;;43.85;3.25;;;15.20;99.90;;;;;;4191695;28;20063;-59
2023/09/16 02:19:32;;;;;;;39.38;2.47;;;15.00;99.90;;;;;;4189047;28;20075;-59
2023/09/16 02:21:52;;;;;;;3.58;1.50;;;15.00;99.90;;;;;;4192109;28;20056;-59
2023/09/16 02:24:12;;;;;;;1.48;1.48;;;15.00;99.90;;;;;;4191482;28;20055;-59
2023/09/16 02:26:32;;;;;;;1.85;1.40;;;15.00;99.90;;;;;;4190442;28;20240;-59
2023/09/16 02:28:52;;;;;;;6.05;2.30;;;15.00;99.90;;;;;;4200130;28;20112;-59
2023/09/16 02:31:12;;;;;;;2.50;2.30;;;15.00;99.90;;;;;;4189146;28;20040;-59
2023/09/16 02:33:33;;;;;;;32.03;3.30;;;15.00;99.90;;;;;;4193923;28;20075;-59
2023/09/16 02:35:53;;;;;;;2.65;2.65;;;14.90;99.90;;;;;;4195225;28;20090;-59
2023/09/16 02:38:13;;;;;;;10.38;2.83;;;15.00;99.90;;;;;;4189242;28;20083;-59
2023/09/16 02:40:38;;;;;;;65.22;4.80;;;15.10;99.90;;;;;;4191376;28;20298;-59
2023/09/16 02:42:57;;;;;;;88.03;4.72;;;15.10;99.90;;;;;;4189578;28;20281;-59
2023/09/16 02:45:18;;;;;;;41.47;4.53;;;14.90;99.90;;;;;;4190705;28;20055;-59
2023/09/16 02:47:38;;;;;;;22.20;3.20;;;15.00;99.90;;;;;;4193434;28;20040;-59
2023/09/16 02:49:58;;;;;;;71.28;4.60;;;15.00;99.90;;;;;;4192271;28;20244;-59
2023/09/16 02:52:20;;;;;;;2.35;2.35;;;14.90;99.90;;;;;;4191392;28;20383;-59
2023/09/16 02:54:40;;;;;;;3.30;3.08;;;14.90;99.90;;;;;;4189554;28;20078;-59
2023/09/16 02:57:00;;;;;;;3.40;3.20;;;15.10;99.90;;;;;;4191116;28;20068;-59
2023/09/16 02:59:20;;;;;;;39.58;4.63;;;15.10;99.90;;;;;;4188527;28;20110;-59
2023/09/16 03:01:40;;;;;;;30.00;4.38;;;15.00;99.90;;;;;;4194678;28;20112;-59
2023/09/16 03:04:00;;;;;;;48.83;4.45;;;15.00;99.90;;;;;;4188779;28;20052;-60
2023/09/16 03:06:22;;;;;;;61.13;4.63;;;14.90;99.90;;;;;;4191017;28;20360;-59
2023/09/16 03:08:42;;;;;;;34.22;4.10;;;14.90;99.90;;;;;;4189291;28;20088;-60
2023/09/16 03:11:03;;;;;;;4.82;2.53;;;14.80;99.90;;;;;;4192844;28;20100;-60
2023/09/16 03:13:23;;;;;;;28.48;3.55;;;14.90;99.90;;;;;;4188206;28;20387;-60
2023/09/16 03:15:47;;;;;;;35.78;4.40;;;14.90;99.90;;;;;;4191606;28;20228;-59
2023/09/16 03:18:07;;;;;;;4.57;4.18;;;14.90;99.90;;;;;;4189050;28;20100;-60
2023/09/16 03:20:28;;;;;;;8.10;2.45;;;14.90;99.90;;;;;;4188375;28;20104;-59
2023/09/16 03:22:48;;;;;;;61.72;4.55;;;14.90;99.90;;;;;;4188069;28;20432;-60
2023/09/16 03:25:09;;;;;;;40.30;3.88;;;14.90;99.90;;;;;;4189033;28;20079;-60
2023/09/16 03:27:29;;;;;;;47.85;4.63;;;14.90;99.90;;;;;;4189890;28;20047;-60
2023/09/16 03:29:49;;;;;;;3.22;3.10;;;14.80;99.90;;;;;;4192627;28;20044;-60
2023/09/16 03:32:09;;;;;;;5.22;3.05;;;14.90;99.90;;;;;;4188556;28;20060;-60
2023/09/16 03:34:29;;;;;;;5.93;3.05;;;15.00;99.90;;;;;;4188209;28;20048;-60
2023/09/16 03:36:49;;;;;;;11.90;2.95;;;15.00;99.90;;;;;;4188968;28;20059;-60
2023/09/16 03:39:09;;;;;;;7.90;2.65;;;15.00;99.90;;;;;;4188881;28;20047;-60
2023/09/16 03:41:30;;;;;;;45.67;3.85;;;15.00;99.90;;;;;;4194512;28;20052;-60
2023/09/16 03:43:49;;;;;;;20.60;3.35;;;14.90;99.90;;;;;;4188233;28;20044;-60
2023/09/16 03:46:09;;;;;;;60.92;4.25;;;14.80;99.90;;;;;;4189363;28;20051;-60
2023/09/16 03:48:30;;;;;;;2.70;2.60;;;14.80;99.90;;;;;;4188415;28;20052;-60
2023/09/16 03:50:49;;;;;;;94.63;6.13;;;14.80;99.90;;;;;;4190362;28;20080;-60
2023/09/16 03:53:10;;;;;;;10.68;3.00;;;14.80;99.90;;;;;;4187915;28;20106;-60
2023/09/16 03:55:31;;;;;;;2.80;2.38;;;14.80;99.90;;;;;;4188775;28;20064;-60
2023/09/16 03:57:51;;;;;;;25.30;2.20;;;14.90;99.90;;;;;;4187576;28;20056;-60
2023/09/16 04:00:12;;;;;;;27.83;3.22;;;14.80;99.90;;;;;;4189490;28;20048;-60
2023/09/16 04:02:32;;;;;;;2.42;2.42;;;14.80;99.90;;;;;;4188606;28;20048;-60
2023/09/16 04:04:53;;;;;;;3.95;2.53;;;14.80;99.90;;;;;;4195534;28;20070;-60
2023/09/16 04:07:13;;;;;;;2.17;2.17;;;14.90;99.90;;;;;;4191303;28;20048;-60
2023/09/16 04:09:33;;;;;;;2.75;2.53;;;14.80;99.90;;;;;;4192541;28;20108;-60
2023/09/16 04:11:53;;;;;;;1.80;1.80;;;14.90;99.90;;;;;;4197627;28;20118;-60
2023/09/16 04:14:13;;;;;;;2.45;2.45;;;15.00;99.90;;;;;;4194747;28;20075;-60
2023/09/16 04:16:33;;;;;;;2.45;2.45;;;15.00;99.90;;;;;;4193651;28;20044;-60
2023/09/16 04:18:53;;;;;;;2.20;2.20;;;15.00;99.90;;;;;;4191316;28;20056;-60
2023/09/16 04:21:13;;;;;;;2.80;2.80;;;15.10;99.90;;;;;;4191431;28;20414;-60
2023/09/16 04:23:36;;;;;;;3.05;2.83;;;15.00;99.90;;;;;;4192070;28;20111;-60
2023/09/16 04:25:57;;;;;;;3.42;3.33;;;14.90;99.90;;;;;;4191401;28;20048;-60
2023/09/16 04:28:17;;;;;;;21.70;3.88;;;14.90;99.90;;;;;;4191906;28;20048;-60
2023/09/16 04:30:50;;;;;;;2.95;2.75;;;14.90;99.90;;;;;;4191129;28;20087;-60
2023/09/16 04:33:10;;;;;;;;;;;15.00;99.90;;;;;;4196023;28;20232;-60
2023/09/16 04:35:31;;;;;;;3.85;3.75;;;14.90;99.90;;;;;;4190157;28;19993;-60
2023/09/16 04:37:51;;;;;;;4.00;3.63;;;15.00;99.90;;;;;;4190972;28;20098;-60
2023/09/16 04:40:11;;;;;;;3.47;3.30;;;15.00;99.90;;;;;;4193173;28;20653;-60
2023/09/16 04:42:32;;;;;;;11.60;3.95;;;15.00;99.90;;;;;;4195905;28;20390;-60
2023/09/16 04:44:52;;;;;;;2.97;2.88;;;14.90;99.90;;;;;;4193219;28;20064;-60
2023/09/16 04:47:11;;;;;;;2.33;2.33;;;15.00;99.90;;;;;;4191045;28;20040;-60
2023/09/16 04:49:32;;;;;;;3.95;3.70;;;14.90;99.90;;;;;;4190982;28;20051;-60
2023/09/16 04:51:52;;;;;;;5.03;4.78;;;15.00;99.90;;;;;;4190333;28;20112;-60
2023/09/16 04:54:14;;;;;;;18.88;5.00;;;15.00;99.90;;;;;;4189811;28;20372;-60
2023/09/16 04:56:35;;;;;;;39.33;5.07;;;14.90;99.90;;;;;;4189354;28;20292;-60
2023/09/16 04:58:55;;;;;;;77.93;6.32;;;14.90;99.90;;;;;;4196976;28;20043;-60
2023/09/16 05:01:15;;;;;;;6.65;4.55;;;14.70;99.90;;;;;;4198121;28;20059;-60
2023/09/16 05:03:35;;;;;;;56.63;5.68;;;14.70;99.90;;;;;;4193679;28;20048;-60
2023/09/16 05:05:55;;;;;;;5.95;3.83;;;14.70;99.90;;;;;;4189732;28;20136;-60
2023/09/16 05:08:15;;;;;;;5.22;3.70;;;14.80;99.90;;;;;;4196731;28;20395;-60
2023/09/16 05:10:35;;;;;;;43.63;4.85;;;14.80;99.90;;;;;;4190156;28;20056;-60
2023/09/16 05:12:55;;;;;;;30.48;3.15;;;14.80;99.90;;;;;;4190770;28;20087;-61
2023/09/16 05:15:19;;;;;;;98.95;6.32;;;14.70;99.90;;;;;;4190284;28;20079;-60
2023/09/16 05:17:40;;;;;;;62.05;6.03;;;14.70;99.90;;;;;;4189704;28;20052;-60
2023/09/16 05:20:00;;;;;;;3.25;3.20;;;14.70;99.90;;;;;;4189921;28;20068;-59
2023/09/16 05:22:20;;;;;;;36.20;4.63;;;14.80;99.90;;;;;;4192589;28;20048;-60
2023/09/16 05:24:40;;;;;;;22.90;3.58;;;14.80;99.90;;;;;;4202056;28;20048;-60
2023/09/16 05:27:00;;;;;;;3.33;2.78;;;14.80;99.90;;;;;;4195280;28;20060;-60
2023/09/16 05:29:20;;;;;;;3.38;2.58;;;14.80;99.90;;;;;;4190777;28;20044;-60
2023/09/16 05:31:40;;;;;;;3.45;3.42;;;14.90;99.90;;;;;;4189540;28;20075;-60
2023/09/16 05:34:00;;;;;;;3.45;3.20;;;15.00;99.90;;;;;;4190712;28;20048;-60
2023/09/16 05:36:21;;;;;;;3.10;2.97;;;15.00;99.90;;;;;;4195029;28;20051;-60
2023/09/16 05:38:41;;;;;;;3.08;3.08;;;14.90;99.90;;;;;;4189953;28;20048;-60
2023/09/16 05:41:01;;;;;;;4.30;3.53;;;15.00;99.90;;;;;;4190339;28;20047;-60
2023/09/16 05:43:22;;;;;;;2.95;2.85;;;15.10;99.90;;;;;;4196406;28;20044;-60
2023/09/16 05:45:42;;;;;;;2.50;2.50;;;15.20;99.90;;;;;;4189048;28;20059;-60
2023/09/16 05:48:03;;;;;;;2.67;2.67;;;15.20;99.90;;;;;;4189049;28;20517;-64
2023/09/16 05:50:23;;;;;;;3.03;3.00;;;15.20;99.90;;;;;;4188637;28;20052;-64
2023/09/16 05:52:43;;;;;;;3.38;3.10;;;15.20;99.90;;;;;;4192770;28;20066;-64
2023/09/16 05:55:03;;;;;;;3.15;2.97;;;15.30;99.90;;;;;;4189998;28;20104;-64
2023/09/16 05:57:24;;;;;;;3.97;3.88;;;15.40;99.90;;;;;;4189579;28;20284;-64
2023/09/16 05:59:44;;;;;;;2.85;2.80;;;15.40;99.90;;;;;;4194436;28;20075;-64
2023/09/16 06:02:04;;;;;;;3.85;3.17;;;15.40;99.90;;;;;;4193463;28;20330;-64
2023/09/16 06:04:24;;;;;;;2.42;2.33;;;15.50;99.90;;;;;;4189943;28;20051;-64
2023/09/16 06:06:46;;;;;;;3.95;2.53;;;15.50;99.90;;;;;;4191500;28;20339;-64
2023/09/16 06:09:06;;;;;;;3.17;3.17;;;15.50;99.90;;;;;;4192256;28;20402;-64
2023/09/16 06:11:28;;;;;;;3.08;3.05;;;15.50;99.90;;;;;;4190487;28;20079;-64
2023/09/16 06:13:48;;;;;;;2.58;2.58;;;15.50;99.90;;;;;;4191203;28;20311;-64
2023/09/16 06:16:08;;;;;;;2.42;2.33;;;15.60;99.90;;;;;;4190126;28;20079;-64
2023/09/16 06:18:28;;;;;;;3.20;2.97;;;15.60;99.90;;;;;;4197256;28;20094;-64
2023/09/16 06:20:48;;;;;;;5.63;3.10;;;15.60;99.90;;;;;;4188730;28;20044;-64
2023/09/16 06:23:08;;;;;;;3.72;3.03;;;15.70;99.90;;;;;;4197855;28;20048;-64
2023/09/16 06:25:30;;;;;;;3.45;3.35;;;15.70;99.90;;;;;;4188562;28;20240;-63
2023/09/16 06:27:50;;;;;;;3.70;3.45;;;15.80;99.90;;;;;;4192823;28;20044;-64
2023/09/16 06:30:10;;;;;;;3.45;3.35;;;15.80;99.90;;;;;;4191283;28;20106;-63
2023/09/16 06:32:30;;;;;;;3.10;3.00;;;15.80;99.90;;;;;;4189826;28;20367;-64
2023/09/16 06:34:50;;;;;;;3.38;3.28;;;15.80;99.90;;;;;;4189147;28;20063;-63
2023/09/16 06:37:11;;;;;;;4.20;4.10;;;15.80;99.90;;;;;;4194471;28;20090;-63
2023/09/16 06:39:32;;;;;;;3.03;3.03;;;15.90;99.90;;;;;;4193247;28;20048;-63
2023/09/16 06:41:52;;;;;;;3.47;3.35;;;15.90;99.90;;;;;;4188694;28;20036;-63
2023/09/16 06:44:11;;;;;;;3.28;3.08;;;16.10;99.90;;;;;;4189598;28;20112;-63
2023/09/16 06:46:31;;;;;;;4.10;3.88;;;16.10;99.90;;;;;;4188234;28;20047;-63
2023/09/16 06:48:51;;;;;;;3.58;3.45;;;16.20;99.90;;;;;;4189034;28;20060;-63
2023/09/16 06:51:11;;;;;;;4.18;3.92;;;16.30;99.90;;;;;;4188159;28;20052;-63
2023/09/16 06:53:33;;;;;;;3.28;3.00;;;16.40;99.90;;;;;;4190242;28;20090;-63
2023/09/16 06:55:53;;;;;;;4.23;4.13;;;16.30;99.90;;;;;;4191198;28;20067;-63
2023/09/16 06:58:13;;;;;;;4.20;3.58;;;16.50;99.90;;;;;;4189778;28;20475;-63
2023/09/16 07:00:52;;;;;;;3.47;3.25;;;16.70;99.90;;;;;;4196251;28;20078;-63
2023/09/16 07:03:12;;;;;;;2.75;2.75;;;16.80;99.90;;;;;;4187932;28;20229;-62
2023/09/16 07:05:32;;;;;;;3.15;3.05;;;16.90;99.90;;;;;;4190551;28;20051;-62
2023/09/16 07:07:52;;;;;;;4.10;3.90;;;17.20;99.90;;;;;;4193641;28;20154;-62
2023/09/16 07:10:13;;;;;;;4.88;4.68;;;17.30;99.90;;;;;;4189173;28;20099;-62
2023/09/16 07:12:33;;;;;;;4.82;3.50;;;17.30;99.90;;;;;;4189697;28;20390;-62
2023/09/16 07:14:53;;;;;;;3.92;3.35;;;17.10;99.90;;;;;;4189645;28;20387;-62
2023/09/16 07:17:13;;;;;;;3.28;3.17;;;17.20;99.90;;;;;;4189235;28;20067;-62
2023/09/16 07:19:33;;;;;;;3.60;3.47;;;17.30;99.90;;;;;;4192770;28;20048;-62
2023/09/16 07:21:53;;;;;;;3.63;3.38;;;17.40;99.90;;;;;;4188978;28;20047;-61
2023/09/16 07:24:14;;;;;;;2.85;2.65;;;17.40;99.90;;;;;;4188918;28;20079;-61
2023/09/16 07:26:34;;;;;;;3.60;3.45;;;17.50;99.90;;;;;;4197665;28;20247;-62
2023/09/16 07:28:54;;;;;;;3.80;3.60;;;17.60;99.90;;;;;;4188950;28;20147;-62
2023/09/16 07:31:14;;;;;;;3.50;3.40;;;17.80;99.90;;;;;;4187101;28;20055;-61
2023/09/16 07:33:34;;;;;;;2.90;2.90;;;17.90;99.90;;;;;;4194101;28;20394;-62
2023/09/16 07:35:54;;;;;;;3.70;3.53;;;18.00;99.90;;;;;;4190639;28;20063;-61
2023/09/16 07:38:15;;;;;;;3.28;3.08;;;18.00;99.90;;;;;;4188791;28;20040;-61
2023/09/16 07:40:37;;;;;;;4.20;3.72;;;18.10;99.90;;;;;;4187787;28;20080;-61
2023/09/16 07:42:58;;;;;;;3.63;3.33;;;18.10;99.90;;;;;;4187852;28;20064;-61
2023/09/16 07:45:18;;;;;;;3.50;3.30;;;18.20;99.90;;;;;;4188881;28;20079;-61
2023/09/16 07:47:38;;;;;;;3.65;3.53;;;18.20;99.90;;;;;;4189149;28;20056;-61
2023/09/16 07:49:59;;;;;;;3.03;2.33;;;18.20;99.90;;;;;;4189337;28;20104;-61
2023/09/16 07:52:19;;;;;;;3.60;3.10;;;18.00;99.90;;;;;;4193254;28;20051;-61
2023/09/16 07:54:39;;;;;;;4.05;3.95;;;18.10;99.90;;;;;;4186717;28;20056;-61
2023/09/16 07:56:59;;;;;;;3.25;3.15;;;18.20;99.90;;;;;;4188736;28;20044;-61
2023/09/16 07:59:20;;;;;;;3.00;2.83;;;18.20;99.90;;;;;;4190710;28;20079;-61
2023/09/16 08:01:41;;;;;;;2.85;2.50;;;18.30;99.90;;;;;;4194921;28;20116;-61
2023/09/16 08:04:01;;;;;;;3.28;3.17;;;18.30;99.90;;;;;;4188409;28;20048;-60
2023/09/16 08:06:21;;;;;;;3.03;2.88;;;18.20;99.90;;;;;;4190440;28;20044;-61
2023/09/16 08:08:42;;;;;;;2.30;2.28;;;18.20;99.90;;;;;;4190158;28;20064;-60
2023/09/16 08:11:02;;;;;;;3.00;2.47;;;18.20;99.90;;;;;;4187676;28;20052;-61
2023/09/16 08:13:22;;;;;;;3.25;3.10;;;18.30;99.90;;;;;;4189743;28;20056;-60
2023/09/16 08:15:42;;;;;;;2.92;2.72;;;18.40;99.90;;;;;;4190039;28;20141;-60
2023/09/16 08:18:03;;;;;;;3.65;2.60;;;18.60;99.90;;;;;;4189061;28;20060;-61
2023/09/16 08:20:24;;;;;;;3.70;3.40;;;18.80;99.90;;;;;;4188505;28;20052;-61
2023/09/16 08:22:44;;;;;;;3.13;2.88;;;18.90;99.90;;;;;;4187426;28;20052;-60
2023/09/16 08:25:05;;;;;;;2.90;2.80;;;19.10;99.90;;;;;;4188060;28;20052;-60
2023/09/16 08:27:28;;;;;;;3.38;2.70;;;19.20;99.90;;;;;;4188318;28;20415;-60
2023/09/16 08:29:49;;;;;;;;;;;19.40;99.90;;;;;;4190381;28;20288;-60
2023/09/16 08:32:09;;;;;;;2.70;2.60;;;19.40;99.90;;;;;;4187670;28;19923;-61
2023/09/16 08:34:30;;;;;;;2.38;2.35;;;19.60;99.90;;;;;;4192365;28;20040;-60
2023/09/16 08:36:50;;;;;;;3.08;2.97;;;19.60;99.90;;;;;;4187410;28;20060;-60
2023/09/16 08:39:10;;;;;;;2.67;2.58;;;19.80;99.90;;;;;;4188244;28;20048;-61
2023/09/16 08:41:46;;;;;;;3.53;2.17;;;19.90;99.90;;;;;;4187300;28;20052;-61
2023/09/16 08:44:08;;;;;;;2.08;1.95;;;20.00;99.90;;;;;;4193520;28;20051;-60
2023/09/16 08:46:30;;;;;;;2.17;1.63;;;20.40;99.90;;;;;;4194625;28;20059;-60
2023/09/16 08:48:55;;;;;;;1.83;1.73;;;20.60;99.90;;;;;;4199371;28;20121;-60
2023/09/16 08:51:18;;;;;;;1.95;1.70;;;20.90;99.90;;;;;;4193031;28;20068;-60
2023/09/16 08:53:42;;;;;;;1.83;1.73;;;21.10;99.90;;;;;;4192711;28;20055;-61
2023/09/16 08:56:03;;;;;;;2.17;2.08;;;21.30;99.90;;;;;;4190825;28;20118;-60
2023/09/16 08:58:24;;;;;;;2.83;1.38;;;21.50;99.90;;;;;;4190303;28;20060;-61
2023/09/16 09:00:44;;;;;;;3.33;1.42;;;21.30;99.90;;;;;;4191805;28;20048;-61
2023/09/16 09:03:05;;;;;;;1.50;1.38;;;21.30;99.90;;;;;;4190940;28;20052;-60
2023/09/16 09:05:27;;;;;;;3.13;1.20;;;21.30;99.90;;;;;;4190856;28;20256;-60
2023/09/16 09:07:50;;;;;;;1.60;1.60;;;21.50;99.90;;;;;;4190033;28;20156;-60
2023/09/16 09:10:11;;;;;;;1.38;1.30;;;21.70;99.90;;;;;;4190881;28;20104;-60
2023/09/16 09:12:33;;;;;;;4.25;1.55;;;21.90;99.90;;;;;;4192074;28;20048;-61
2023/09/16 09:14:54;;;;;;;2.80;1.23;;;22.20;99.90;;;;;;4190162;28;20091;-61
2023/09/16 09:17:15;;;;;;;2.03;1.90;;;22.40;99.90;;;;;;4191912;28;20067;-61
2023/09/16 09:19:37;;;;;;;2.45;1.40;;;22.50;99.90;;;;;;4197615;28;20087;-60
2023/09/16 09:21:58;;;;;;;1.58;1.48;;;22.30;99.90;;;;;;4197084;28;20063;-60
2023/09/16 09:24:18;;;;;;;2.40;1.30;;;22.50;99.90;;;;;;4191070;28;20241;-60
2023/09/16 09:26:38;;;;;;;1.63;1.35;;;22.70;99.90;;;;;;4193974;28;20079;-61
2023/09/16 09:28:59;;;;;;;1.00;1.00;;;22.80;99.90;;;;;;4190161;28;20098;-61
2023/09/16 09:31:19;;;;;;;1.30;1.20;;;23.00;99.90;;;;;;4190241;28;20367;-61
2023/09/16 09:33:41;;;;;;;2.10;1.48;;;23.20;99.90;;;;;;4193254;28;20104;-61
2023/09/16 09:36:11;;;;;;;1.42;1.40;;;23.30;99.90;;;;;;4191980;28;20044;-60
2023/09/16 09:38:32;;;;;;;1.92;1.27;;;23.50;99.90;;;;;;4190432;28;20060;-61
2023/09/16 09:41:00;;;;;;;1.85;1.15;;;23.60;99.90;;;;;;4188911;28;20048;-61
2023/09/16 09:43:21;;;;;;;2.45;1.30;;;23.70;99.90;;;;;;4188816;28;20048;-60
2023/09/16 09:45:41;;;;;;;1.38;1.27;;;23.60;99.90;;;;;;4197738;28;20043;-61
2023/09/16 09:48:01;;;;;;;3.40;1.35;;;23.70;99.90;;;;;;4189733;28;20086;-60
2023/09/16 09:50:22;;;;;;;4.75;1.20;;;23.70;99.90;;;;;;4190086;28;20044;-61
2023/09/16 09:52:55;;;;;;;3.17;1.00;;;23.70;99.90;;;;;;4189524;28;20170;-60
2023/09/16 09:55:23;;;;;;;2.85;0.95;;;23.90;99.90;;;;;;4189927;28;20048;-61
2023/09/16 09:57:45;;;;;;;0.90;0.90;;;24.20;99.90;;;;;;4191111;28;20048;-61
2023/09/16 10:00:06;;;;;;;1.00;1.00;;;24.50;99.90;;;;;;4188926;28;20055;-61
2023/09/16 10:02:27;;;;;;;2.95;1.00;;;24.80;99.90;;;;;;4191945;28;20120;-60
2023/09/16 10:04:47;;;;;;;0.90;0.90;;;24.80;99.90;;;;;;4191372;28;20355;-60
2023/09/16 10:07:08;;;;;;;1.95;0.90;;;24.80;99.90;;;;;;4190629;28;20079;-60
2023/09/16 10:09:28;;;;;;;2.45;1.35;;;24.90;99.90;;;;;;4189881;28;20233;-61
2023/09/16 10:11:48;;;;;;;2.67;0.80;;;25.20;99.90;;;;;;4192311;28;20086;-61
2023/09/16 10:14:08;;;;;;;1.98;1.20;;;25.40;99.90;;;;;;4194188;28;20375;-60
2023/09/16 10:16:28;;;;;;;1.73;0.98;;;25.20;99.90;;;;;;4189187;28;20072;-61
2023/09/16 10:18:49;;;;;;;1.55;0.90;;;25.10;99.90;;;;;;4191225;28;20074;-61
2023/09/16 10:21:12;;;;;;;2.10;1.10;;;25.50;99.90;;;;;;4188795;28;20131;-61
2023/09/16 10:23:32;;;;;;;1.00;1.00;;;25.70;99.90;;;;;;4203048;28;20051;-61
2023/09/16 10:25:52;;;;;;;0.90;0.90;;;25.70;99.90;;;;;;4188667;28;20399;-60
2023/09/16 10:28:12;;;;;;;1.67;1.02;;;25.70;99.90;;;;;;4189729;28;20114;-61
2023/09/16 10:30:34;;;;;;;3.53;0.90;;;25.50;99.90;;;;;;4192230;28;20052;-61
2023/09/16 10:32:55;;;;;;;0.85;0.85;;;25.50;99.90;;;;;;4190762;28;20059;-61
2023/09/16 10:35:16;;;;;;;2.75;0.90;;;25.70;99.90;;;;;;4190636;28;20064;-60
2023/09/16 10:37:36;;;;;;;1.05;0.95;;;25.80;99.90;;;;;;4193173;28;20048;-61
2023/09/16 10:39:59;;;;;;;3.55;1.00;;;26.00;99.90;;;;;;4189603;28;20056;-60
2023/09/16 10:42:20;;;;;;;;;;;26.40;99.90;;;;;;4193130;28;20055;-61
2023/09/16 10:44:41;;;;;;;2.17;1.02;;;26.30;99.90;;;;;;4192156;28;19962;-60
2023/09/16 10:47:04;;;;;;;1.03;0.83;;;26.30;99.90;;;;;;4190468;28;20044;-60
2023/09/16 10:49:24;;;;;;;2.58;1.10;;;26.50;99.90;;;;;;4190634;28;20122;-61
2023/09/16 10:51:45;;;;;;;1.23;1.10;;;26.80;99.90;;;;;;4189046;28;20070;-61
2023/09/16 10:54:12;;;;;;;2.90;1.10;;;27.20;99.90;;;;;;4188450;28;20052;-61
2023/09/16 10:56:36;;;;;;;1.40;0.90;;;27.10;99.90;;;;;;4194058;28;20473;-61
2023/09/16 10:59:07;;;;;;;1.77;1.33;;;26.30;99.90;;;;;;4188306;28;20243;-60
2023/09/16 11:01:30;;;;;;;2.97;1.80;;;25.90;99.90;;;;;;4189983;28;20112;-61
2023/09/16 11:03:55;;;;;;;0.90;0.90;;;25.90;99.90;;;;;;4190253;28;20052;-60
2023/09/16 11:06:16;;;;;;;3.08;0.90;;;25.70;99.90;;;;;;4188501;28;20135;-60
2023/09/16 11:08:36;;;;;;;1.80;0.90;;;25.60;99.90;;;;;;4191409;28;20279;-60
2023/09/16 11:10:57;;;;;;;2.25;1.20;;;25.40;99.90;;;;;;4191415;28;20047;-60
2023/09/16 11:13:17;;;;;;;2.85;1.00;;;25.40;99.90;;;;;;4190000;28;20079;-60
2023/09/16 11:15:41;;;;;;;1.58;1.52;;;25.70;99.90;;;;;;4199054;28;20101;-60
2023/09/16 11:18:10;;;;;;;2.63;0.90;;;25.60;99.90;;;;;;4194017;28;20086;-60
2023/09/16 11:20:33;;;;;;;4.03;1.00;;;25.50;99.90;;;;;;4194328;28;20063;-60
2023/09/16 11:22:53;;;;;;;2.00;1.20;;;25.40;99.90;;;;;;4188910;28;20067;-60
2023/09/16 11:25:15;;;;;;;0.90;0.90;;;25.30;99.90;;;;;;4189310;28;20047;-60
2023/09/16 11:27:35;;;;;;;;;;;25.40;99.90;;;;;;4193394;28;20075;-60
2023/09/16 11:29:55;;;;;;;3.13;0.80;;;25.50;99.70;;;;;;4190290;28;19959;-60
2023/09/16 11:32:15;;;;;;;2.90;0.80;;;25.60;99.60;;;;;;4186704;28;20056;-60
2023/09/16 11:34:39;;;;;;;2.20;1.00;;;25.60;99.80;;;;;;4188493;28;20406;-60
2023/09/16 11:37:03;;;;;;;1.98;0.93;;;25.60;99.30;;;;;;4199759;28;20113;-60
2023/09/16 11:39:42;;;;;;;3.53;1.40;;;25.60;99.70;;;;;;4191286;28;20396;-60
2023/09/16 11:42:02;;;;;;;1.08;1.00;;;25.70;99.30;;;;;;4192170;28;20044;-60
2023/09/16 11:44:23;;;;;;;1.70;0.80;;;26.20;99.40;;;;;;4188983;28;20043;-60
2023/09/16 11:46:46;;;;;;;2.35;1.00;;;26.70;98.60;;;;;;4188843;28;20680;-60
2023/09/16 11:49:07;;;;;;;1.48;0.80;;;26.80;98.50;;;;;;4191076;28;20043;-61
2023/09/16 11:51:27;;;;;;;5.32;1.02;;;26.70;96.70;;;;;;4187715;28;20086;-60
2023/09/16 11:53:48;;;;;;;1.90;1.00;;;26.60;98.00;;;;;;4191477;28;20240;-60
2023/09/16 11:56:09;;;;;;;3.45;1.10;;;26.50;97.60;;;;;;4188128;28;20130;-61
2023/09/16 11:58:29;;;;;;;1.50;0.90;;;26.20;96.90;;;;;;4188771;28;20382;-60
2023/09/16 12:00:50;;;;;;;0.90;0.70;;;26.20;96.40;;;;;;4188661;28;20402;-60
2023/09/16 12:03:10;;;;;;;1.10;0.70;;;26.20;95.90;;;;;;4188839;28;20057;-60
2023/09/16 12:05:31;;;;;;;2.65;0.80;;;26.70;96.50;;;;;;4188931;28;20496;-60
2023/09/16 12:07:51;;;;;;;1.77;0.70;;;27.00;95.40;;;;;;4189969;28;20071;-61
2023/09/16 12:10:12;;;;;;;2.15;1.00;;;27.30;95.30;;;;;;4188562;28;20047;-60
2023/09/16 12:12:32;;;;;;;2.20;0.80;;;26.90;93.60;;;;;;4192927;28;20133;-60
2023/09/16 12:14:52;;;;;;;1.88;0.80;;;26.80;94.70;;;;;;4188707;28;20071;-60